Isle St George, Ohio
Current Conditions -  °F | °C
As of 2:53 AM on Monday 24 Nov 2014 (Local Time) from KPCW Reporting Station
Overcast Overcast  
Wind Chill: 57°   Ceiling: 2800
Heat Index: 57°   Visibility: 10mi
Dew Point: 55°   Wind: 22mph
Humidity: 94%   Direction: 190°S
Pressure: 29.13"   Gusts: NA
Location:  41.7244°N, 82.8167°W
Report Text: KPCW 240753Z AUTO 19019KT 10SM FEW021 OVC028 14/13 A2913 RMK AO2
Loading
Personal Weather Stations






























Interactive Weather Map New forecast layout! Learn more

10-Day Weather Forecast

Advertisements
Track Severe Weather on mobile